Time;durP1;ratioP1;P1;durP2;ratioP2;P2;SDS_P1;SDS_P2;PMS_P1;PMS_P2;Temp;Humidity;BMP_temperature;BMP_pressure;BME280_temperature;BME280_humidity;BME280_pressure;Samples;Min_cycle;Max_cycle;Signal;HPM_P1;HPM_P2
2023/04/25 00:01:18;;;;;;;;;;;;;;;11.27;49.93;100006.41;4959140;28;6939;-73
2023/04/25 00:03:45;;;;;;;;;;;;;;;11.22;50.20;100008.81;4962132;28;6804;-73
2023/04/25 00:06:11;;;;;;;;;;;;;;;11.18;50.39;99998.38;4959919;28;6800;-72
2023/04/25 00:08:37;;;;;;;;;;;;;;;11.16;50.74;100003.41;4966256;28;6864;-72
2023/04/25 00:11:03;;;;;;;;;;;;;;;11.15;50.48;100005.91;4948166;28;6967;-72
2023/04/25 00:13:29;;;;;;;;;;;;;;;11.16;51.19;100000.00;4958560;28;6851;-75
2023/04/25 00:15:56;;;;;;;;;;;;;;;11.15;51.32;99996.53;4960702;28;7218;-73
2023/04/25 00:18:22;;;;;;;;;;;;;;;11.18;51.11;99996.66;4995480;28;7875;-72
2023/04/25 00:20:48;;;;;;;;;;;;;;;11.19;51.03;100000.97;4996274;28;7169;-72
2023/04/25 00:23:17;;;;;;;;;;;;;;;11.20;51.08;100001.84;4975102;28;7055;-72
2023/04/25 00:25:49;;;;;;;;;;;;;;;11.19;51.07;100005.25;4958336;28;6859;-73
2023/04/25 00:28:16;;;;;;;;;;;;;;;11.18;51.13;100006.91;4975846;28;7245;-72
2023/04/25 00:30:43;;;;;;;;;;;;;;;11.18;51.46;100016.31;4976023;28;7253;-73
2023/04/25 00:33:09;;;;;;;;;;;;;;;11.14;50.88;100012.75;4995810;28;7223;-73
2023/04/25 00:35:35;;;;;;;;;;;;;;;11.13;51.14;100015.25;4965466;28;6947;-72
2023/04/25 00:38:02;;;;;;;;;;;;;;;11.11;51.28;100012.66;4946889;28;7273;-73
2023/04/25 00:40:28;;;;;;;;;;;;;;;11.07;51.50;100014.22;4988586;28;6847;-73
2023/04/25 00:42:54;;;;;;;;;;;;;;;11.04;51.24;100014.06;4947087;28;6991;-72
2023/04/25 00:45:20;;;;;;;;;;;;;;;11.02;51.20;100019.97;4958505;28;6792;-72
2023/04/25 00:47:50;;;;;;;;;;;;;;;10.98;51.36;100018.97;4959071;28;7117;-75
2023/04/25 00:50:16;;;;;;;;;;;;;;;10.95;51.31;100019.72;4959741;28;6804;-73
2023/04/25 00:52:44;;;;;;;;;;;;;;;10.97;51.78;100019.78;4957646;28;6930;-73
2023/04/25 00:55:12;;;;;;;;;;;;;;;10.96;52.01;100013.75;4989020;28;7186;-75
2023/04/25 00:57:38;;;;;;;;;;;;;;;10.97;52.07;100018.09;4957623;28;6993;-73
2023/04/25 01:00:06;;;;;;;;;;;;;;;11.00;52.26;100013.88;4956195;28;7035;-74
2023/04/25 01:02:35;;;;;;;;;;;;;;;11.01;52.29;100010.50;4958161;28;7032;-76
2023/04/25 01:05:01;;;;;;;;;;;;;;;11.01;52.03;100011.38;4995845;28;6804;-72
2023/04/25 01:07:27;;;;;;;;;;;;;;;11.01;51.88;100010.50;4975379;28;7235;-72
2023/04/25 01:09:52;;;;;;;;;;;;;;;11.01;51.88;100013.06;4962815;28;6772;-72
2023/04/25 01:12:19;;;;;;;;;;;;;;;11.01;52.16;100023.31;4993862;28;7018;-72
2023/04/25 01:14:44;;;;;;;;;;;;;;;11.00;52.12;100013.88;4995630;28;7062;-73
2023/04/25 01:17:12;;;;;;;;;;;;;;;11.01;52.05;100013.94;4995147;28;7249;-81
2023/04/25 01:19:38;;;;;;;;;;;;;;;11.01;51.93;100019.09;4956926;28;6792;-77
2023/04/25 01:22:04;;;;;;;;;;;;;;;11.02;51.90;100015.69;4964135;28;7187;-81
2023/04/25 01:24:32;;;;;;;;;;;;;;;11.05;52.00;100020.94;4978505;28;6950;-81
2023/04/25 01:27:03;;;;;;;;;;;;;;;11.08;52.29;100023.66;4996195;28;6972;-81
2023/04/25 01:29:31;;;;;;;;;;;;;;;11.12;52.19;100022.09;4962395;28;7172;-80
2023/04/25 01:31:58;;;;;;;;;;;;;;;11.15;52.63;100019.63;4965103;28;6815;-78
2023/04/25 01:34:24;;;;;;;;;;;;;;;11.20;52.16;100019.81;4996364;28;7594;-81
2023/04/25 01:36:51;;;;;;;;;;;;;;;11.23;52.30;100020.81;4976625;28;7152;-76
2023/04/25 01:39:18;;;;;;;;;;;;;;;11.28;52.13;100017.53;4963981;28;7311;-79
2023/04/25 01:41:45;;;;;;;;;;;;;;;11.30;52.43;100018.47;4955191;28;6785;-78
2023/04/25 01:44:11;;;;;;;;;;;;;;;11.33;52.26;100021.16;4976817;28;7336;-81
2023/04/25 01:46:37;;;;;;;;;;;;;;;11.35;52.11;100024.66;4996283;28;6856;-80
2023/04/25 01:49:03;;;;;;;;;;;;;;;11.36;51.94;100019.59;4956886;28;6772;-77
2023/04/25 01:51:29;;;;;;;;;;;;;;;11.38;52.18;100020.53;4975126;28;6967;-78
2023/04/25 01:53:56;;;;;;;;;;;;;;;11.38;52.16;100027.34;4954954;28;6796;-79
2023/04/25 01:56:21;;;;;;;;;;;;;;;11.38;51.89;100024.78;4958732;28;6860;-81
2023/04/25 01:58:48;;;;;;;;;;;;;;;11.40;52.33;100023.16;4991714;28;9889;-79
2023/04/25 02:01:14;;;;;;;;;;;;;;;11.39;51.71;100031.66;4953827;28;6815;-80
2023/04/25 02:03:39;;;;;;;;;;;;;;;11.40;51.87;100030.88;4993073;28;6839;-79
2023/04/25 02:06:05;;;;;;;;;;;;;;;11.39;52.06;100039.34;4985952;28;7248;-81
2023/04/25 02:08:31;;;;;;;;;;;;;;;11.40;51.63;100038.56;4976090;28;8447;-81
2023/04/25 02:10:57;;;;;;;;;;;;;;;11.40;52.08;100038.56;4960202;28;6969;-81
2023/04/25 02:13:23;;;;;;;;;;;;;;;11.39;51.97;100039.34;4946035;28;6975;-72
2023/04/25 02:15:48;;;;;;;;;;;;;;;11.39;51.63;100042.81;4974582;28;6955;-73
2023/04/25 02:18:16;;;;;;;;;;;;;;;11.40;52.29;100033.44;4964234;28;6760;-72
2023/04/25 02:20:42;;;;;;;;;;;;;;;11.40;52.23;100038.56;4991693;28;6879;-73
2023/04/25 02:23:08;;;;;;;;;;;;;;;11.42;51.88;100039.50;4976575;28;9005;-72
2023/04/25 02:25:34;;;;;;;;;;;;;;;11.42;52.28;100036.03;4951958;28;7158;-73
2023/04/25 02:28:00;;;;;;;;;;;;;;;11.40;51.71;100033.44;4963935;28;6902;-73
2023/04/25 02:30:25;;;;;;;;;;;;;;;11.39;51.98;100031.66;4996269;28;6783;-72
2023/04/25 02:32:51;;;;;;;;;;;;;;;11.37;51.75;100039.31;4976753;28;6966;-72
2023/04/25 02:35:17;;;;;;;;;;;;;;;11.36;52.01;100041.81;4977045;28;6948;-74
2023/04/25 02:37:43;;;;;;;;;;;;;;;11.34;52.08;100038.31;4961616;28;8682;-74
2023/04/25 02:40:09;;;;;;;;;;;;;;;11.34;51.95;100033.19;4976712;28;6963;-73
2023/04/25 02:42:35;;;;;;;;;;;;;;;11.30;51.96;100037.31;4949172;28;6982;-73
2023/04/25 02:45:01;;;;;;;;;;;;;;;11.29;51.96;100042.38;4976022;28;6979;-76
2023/04/25 02:47:27;;;;;;;;;;;;;;;11.24;52.61;100032.81;4966773;28;6991;-73
2023/04/25 02:49:52;;;;;;;;;;;;;;;11.23;52.11;100041.34;4964793;28;7643;-73
2023/04/25 02:52:18;;;;;;;;;;;;;;;11.21;52.19;100037.84;4997314;28;6760;-73
2023/04/25 02:54:44;;;;;;;;;;;;;;;11.19;52.05;100042.00;4967865;28;7478;-72
2023/04/25 02:57:09;;;;;;;;;;;;;;;11.19;52.08;100034.31;4998770;28;6768;-73
2023/04/25 02:59:35;;;;;;;;;;;;;;;11.17;52.55;100041.09;4975028;28;7136;-74
2023/04/25 03:02:01;;;;;;;;;;;;;;;11.14;52.27;100042.66;4993316;28;6931;-72
2023/04/25 03:04:27;;;;;;;;;;;;;;;11.13;52.47;100038.34;4960859;28;6788;-72
2023/04/25 03:06:53;;;;;;;;;;;;;;;11.11;52.75;100036.59;4962592;28;6773;-73
2023/04/25 03:09:19;;;;;;;;;;;;;;;11.12;52.54;100045.16;4945016;28;7111;-73
2023/04/25 03:11:45;;;;;;;;;;;;;;;11.12;52.55;100045.16;4964284;28;7209;-73
2023/04/25 03:14:12;;;;;;;;;;;;;;;11.14;52.63;100051.22;4981290;28;7038;-73
2023/04/25 03:16:38;;;;;;;;;;;;;;;11.13;52.50;100041.78;4973654;28;7134;-74
2023/04/25 03:19:04;;;;;;;;;;;;;;;11.11;52.58;100046.84;4947347;28;7221;-72
2023/04/25 03:21:34;;;;;;;;;;;;;;;11.09;52.74;100047.59;4973756;28;6804;-75
2023/04/25 03:24:04;;;;;;;;;;;;;;;11.07;53.04;100050.13;4967276;28;7648;-76
2023/04/25 03:26:29;;;;;;;;;;;;;;;11.06;52.69;100045.81;4965288;28;7011;-75
2023/04/25 03:28:55;;;;;;;;;;;;;;;11.03;52.71;100057.63;4951557;28;6967;-73
2023/04/25 03:31:22;;;;;;;;;;;;;;;11.02;52.77;100053.31;4956327;28;7319;-73
2023/04/25 03:33:47;;;;;;;;;;;;;;;10.98;52.38;100048.03;4956873;28;7012;-72
2023/04/25 03:36:13;;;;;;;;;;;;;;;10.98;53.02;100053.16;4946557;28;6963;-73
2023/04/25 03:38:41;;;;;;;;;;;;;;;10.95;53.02;100047.03;4956334;28;7325;-75
2023/04/25 03:41:06;;;;;;;;;;;;;;;10.96;52.51;100051.34;4957035;28;6796;-75
2023/04/25 03:43:32;;;;;;;;;;;;;;;10.94;52.71;100058.09;4955921;28;10205;-75
2023/04/25 03:45:57;;;;;;;;;;;;;;;10.92;53.10;100050.38;4946940;28;7094;-75
2023/04/25 03:48:25;;;;;;;;;;;;;;;10.92;52.93;100052.03;4987151;28;7400;-75
2023/04/25 03:50:52;;;;;;;;;;;;;;;10.91;53.04;100051.19;4960733;28;6780;-75
2023/04/25 03:53:17;;;;;;;;;;;;;;;10.91;52.63;100058.88;4972293;28;7133;-75
2023/04/25 03:55:43;;;;;;;;;;;;;;;10.91;53.00;100058.00;4987412;28;6900;-75
2023/04/25 03:58:09;;;;;;;;;;;;;;;10.90;53.42;100059.66;4951732;28;7214;-75
2023/04/25 04:00:35;;;;;;;;;;;;;;;10.92;53.02;100065.75;4984678;28;6946;-75
2023/04/25 04:03:01;;;;;;;;;;;;;;;10.95;53.44;100068.44;4959765;28;7311;-75
2023/04/25 04:05:27;;;;;;;;;;;;;;;10.95;52.88;100065.88;4961421;28;6791;-75
2023/04/25 04:07:53;;;;;;;;;;;;;;;10.98;53.03;100073.69;4954489;28;6975;-76
2023/04/25 04:10:19;;;;;;;;;;;;;;;10.98;53.22;100075.38;4961325;28;7194;-75
2023/04/25 04:12:44;;;;;;;;;;;;;;;10.98;52.86;100073.69;4985611;28;6795;-75
2023/04/25 04:15:10;;;;;;;;;;;;;;;10.98;53.19;100081.38;4987381;28;6780;-75
2023/04/25 04:17:36;;;;;;;;;;;;;;;10.97;53.11;100087.31;4954023;28;6800;-75
2023/04/25 04:20:03;;;;;;;;;;;;;;;10.97;52.82;100076.19;4958263;28;7290;-75
2023/04/25 04:22:29;;;;;;;;;;;;;;;10.97;52.90;100084.75;4985806;28;6804;-75
2023/04/25 04:24:56;;;;;;;;;;;;;;;10.97;52.94;100082.19;4991619;28;7235;-75
2023/04/25 04:27:23;;;;;;;;;;;;;;;10.98;53.25;100080.50;4993617;28;6871;-75
2023/04/25 04:29:50;;;;;;;;;;;;;;;11.00;53.43;100091.69;4962010;28;7181;-75
2023/04/25 04:32:17;;;;;;;;;;;;;;;11.02;53.30;100091.78;4957000;28;6872;-75
2023/04/25 04:34:43;;;;;;;;;;;;;;;11.03;53.42;100090.97;4963507;28;7092;-75
2023/04/25 04:37:10;;;;;;;;;;;;;;;11.04;53.64;100098.69;4990440;28;6772;-75
2023/04/25 04:39:36;;;;;;;;;;;;;;;11.06;53.36;100091.06;4955049;28;6961;-75
2023/04/25 04:42:03;;;;;;;;;;;;;;;11.06;53.44;100089.41;4990460;28;7167;-75
2023/04/25 04:44:32;;;;;;;;;;;;;;;11.07;53.46;100088.59;4989625;28;6792;-75
2023/04/25 04:46:58;;;;;;;;;;;;;;;11.08;53.20;100092.00;4991597;28;8036;-76
2023/04/25 04:49:24;;;;;;;;;;;;;;;11.09;53.33;100096.31;4988780;28;6974;-75
2023/04/25 04:51:50;;;;;;;;;;;;;;;11.10;53.25;100093.81;4995668;28;6779;-75
2023/04/25 04:54:16;;;;;;;;;;;;;;;11.13;53.26;100099.88;4972974;28;7302;-75
2023/04/25 04:56:42;;;;;;;;;;;;;;;11.11;53.34;100112.66;4955795;28;7202;-75
2023/04/25 04:59:07;;;;;;;;;;;;;;;11.09;53.10;100110.03;4956147;28;6803;-75
2023/04/25 05:01:35;;;;;;;;;;;;;;;11.10;53.24;100118.59;4990085;28;6791;-75
2023/04/25 05:04:02;;;;;;;;;;;;;;;11.09;53.73;100115.16;4958602;28;7587;-75
2023/04/25 05:06:31;;;;;;;;;;;;;;;11.11;53.57;100115.25;4960306;28;6999;-75
2023/04/25 05:08:57;;;;;;;;;;;;;;;11.15;53.73;100122.22;4954818;28;7059;-75
2023/04/25 05:11:23;;;;;;;;;;;;;;;11.21;53.83;100131.88;4994868;28;7123;-75
2023/04/25 05:13:53;;;;;;;;;;;;;;;11.23;53.35;100136.25;4962643;28;8142;-75
2023/04/25 05:16:19;;;;;;;;;;;;;;;11.25;53.54;100137.19;4959250;28;6788;-75
2023/04/25 05:18:45;;;;;;;;;;;;;;;11.28;53.47;100140.69;4962129;28;7233;-75
2023/04/25 05:21:11;;;;;;;;;;;;;;;11.30;53.45;100139.06;4954218;28;7224;-75
2023/04/25 05:23:36;;;;;;;;;;;;;;;11.33;53.59;100144.31;4980884;28;6807;-75
2023/04/25 05:26:02;;;;;;;;;;;;;;;11.37;53.62;100147.09;4962603;28;6791;-75
2023/04/25 05:28:28;;;;;;;;;;;;;;;11.43;53.46;100146.44;4960301;28;7010;-75
2023/04/25 05:30:53;;;;;;;;;;;;;;;11.48;53.74;100155.19;4984192;28;6940;-75
2023/04/25 05:33:20;;;;;;;;;;;;;;;11.51;53.14;100162.16;4961577;28;7044;-75
2023/04/25 05:35:46;;;;;;;;;;;;;;;11.55;53.03;100158.03;4969101;28;7281;-75
2023/04/25 05:38:11;;;;;;;;;;;;;;;11.58;53.47;100155.56;4963449;28;7076;-76
2023/04/25 05:40:37;;;;;;;;;;;;;;;11.63;53.38;100161.78;4961813;28;6983;-75
2023/04/25 05:43:02;;;;;;;;;;;;;;;11.68;53.30;100157.69;4954600;28;6949;-75
2023/04/25 05:45:28;;;;;;;;;;;;;;;11.75;52.99;100162.25;4977221;28;6923;-75
2023/04/25 05:47:54;;;;;;;;;;;;;;;11.79;53.17;100166.72;4960999;28;6780;-75
2023/04/25 05:50:19;;;;;;;;;;;;;;;11.86;52.73;100164.34;4967592;28;8592;-75
2023/04/25 05:52:45;;;;;;;;;;;;;;;11.91;52.99;100170.56;4952588;28;7981;-75
2023/04/25 05:55:10;;;;;;;;;;;;;;;11.97;52.34;100172.50;4961859;28;7537;-75
2023/04/25 05:57:36;;;;;;;;;;;;;;;12.03;52.07;100171.06;4948914;28;7405;-75
2023/04/25 06:00:03;;;;;;;;;;;;;;;12.07;52.36;100174.63;4957063;28;6938;-75
2023/04/25 06:02:29;;;;;;;;;;;;;;;12.12;52.17;100179.94;4983049;28;6975;-75
2023/04/25 06:04:55;;;;;;;;;;;;;;;12.15;51.80;100180.94;4967852;28;7348;-75
2023/04/25 06:07:20;;;;;;;;;;;;;;;12.18;51.98;100185.31;4971324;28;7004;-75
2023/04/25 06:09:46;;;;;;;;;;;;;;;12.21;51.46;100181.16;4971430;28;6972;-75
2023/04/25 06:12:11;;;;;;;;;;;;;;;12.25;51.63;100182.16;4987761;28;6951;-75
2023/04/25 06:14:38;;;;;;;;;;;;;;;12.30;51.65;100183.22;4970754;28;6973;-75
2023/04/25 06:17:08;;;;;;;;;;;;;;;12.35;51.49;100191.94;4957310;28;7309;-75
2023/04/25 06:19:35;;;;;;;;;;;;;;;12.39;50.99;100190.38;4988472;28;7718;-75
2023/04/25 06:22:01;;;;;;;;;;;;;;;12.42;51.43;100195.66;4961332;28;7236;-75
2023/04/25 06:24:27;;;;;;;;;;;;;;;12.46;51.46;100192.34;4993322;28;6788;-75
2023/04/25 06:26:54;;;;;;;;;;;;;;;12.52;50.61;100184.00;4954832;28;7236;-75
2023/04/25 06:29:19;;;;;;;;;;;;;;;12.61;50.22;100192.03;4991500;28;7141;-75
2023/04/25 06:31:45;;;;;;;;;;;;;;;12.66;50.00;100197.34;4959938;28;6784;-75
2023/04/25 06:34:11;;;;;;;;;;;;;;;12.73;50.04;100188.16;4986684;28;7852;-75
2023/04/25 06:36:36;;;;;;;;;;;;;;;12.83;50.63;100192.81;4977547;28;6967;-75
2023/04/25 06:39:02;;;;;;;;;;;;;;;12.90;50.27;100194.78;4963783;28;6829;-75
2023/04/25 06:41:28;;;;;;;;;;;;;;;13.00;50.07;100202.81;4983430;28;6787;-75
2023/04/25 06:43:53;;;;;;;;;;;;;;;13.09;49.21;100208.28;4991432;28;7027;-75
2023/04/25 06:46:19;;;;;;;;;;;;;;;13.17;49.27;100204.28;4986207;28;7821;-75
2023/04/25 06:48:45;;;;;;;;;;;;;;;13.21;48.61;100205.25;4990614;28;6955;-75
2023/04/25 06:51:10;;;;;;;;;;;;;;;13.18;48.43;100215.44;4955576;28;7131;-75
2023/04/25 06:53:36;;;;;;;;;;;;;;;13.13;47.91;100217.00;4979510;28;6792;-75
2023/04/25 06:56:02;;;;;;;;;;;;;;;13.10;47.81;100222.03;4986453;28;6759;-75
2023/04/25 06:58:28;;;;;;;;;;;;;;;13.13;48.55;100222.13;4956556;28;7359;-75
2023/04/25 07:00:54;;;;;;;;;;;;;;;13.25;48.21;100232.00;4957514;28;7309;-75
2023/04/25 07:03:20;;;;;;;;;;;;;;;13.40;48.38;100224.75;4972317;28;6776;-75
2023/04/25 07:05:46;;;;;;;;;;;;;;;13.59;48.67;100228.88;4948255;28;6780;-76
2023/04/25 07:08:11;;;;;;;;;;;;;;;13.77;48.54;100225.16;4954525;28;6836;-75
2023/04/25 07:10:37;;;;;;;;;;;;;;;13.84;47.34;100224.50;4940953;28;7211;-75
2023/04/25 07:13:03;;;;;;;;;;;;;;;13.85;46.99;100225.38;4957296;28;7472;-76
2023/04/25 07:15:28;;;;;;;;;;;;;;;13.90;47.55;100231.53;4956457;28;6787;-76
2023/04/25 07:17:54;;;;;;;;;;;;;;;13.94;46.84;100230.84;4995646;28;6775;-76
2023/04/25 07:20:19;;;;;;;;;;;;;;;14.00;46.38;100237.88;4951447;28;8065;-76
2023/04/25 07:22:45;;;;;;;;;;;;;;;14.05;45.84;100241.50;4959322;28;6911;-76
2023/04/25 07:25:11;;;;;;;;;;;;;;;14.06;46.08;100243.22;4972162;28;6772;-75
2023/04/25 07:27:36;;;;;;;;;;;;;;;14.03;45.79;100241.44;4958918;28;6779;-76
2023/04/25 07:30:03;;;;;;;;;;;;;;;14.01;45.42;100234.47;4959961;28;6836;-75
2023/04/25 07:32:29;;;;;;;;;;;;;;;14.04;46.26;100237.13;4975777;28;6984;-76
2023/04/25 07:34:55;;;;;;;;;;;;;;;14.09;45.36;100239.84;4946611;28;8400;-76
2023/04/25 07:37:21;;;;;;;;;;;;;;;14.13;45.33;100237.41;4961387;28;7763;-76
2023/04/25 07:39:46;;;;;;;;;;;;;;;14.24;45.05;100240.34;4996953;28;7082;-76
2023/04/25 07:42:13;;;;;;;;;;;;;;;14.37;45.24;100248.44;4997732;28;7185;-76
2023/04/25 07:44:39;;;;;;;;;;;;;;;14.44;44.73;100256.41;4995301;28;6796;-76
2023/04/25 07:47:09;;;;;;;;;;;;;;;14.52;44.67;100248.91;4987874;28;7428;-76
2023/04/25 07:49:36;;;;;;;;;;;;;;;14.56;44.57;100258.47;4963589;28;7383;-76
2023/04/25 07:52:03;;;;;;;;;;;;;;;14.63;44.37;100263.81;4996846;28;7152;-75
2023/04/25 07:54:29;;;;;;;;;;;;;;;14.68;43.81;100257.09;4987399;28;7381;-76
2023/04/25 07:56:56;;;;;;;;;;;;;;;14.74;43.69;100262.44;4980549;28;7037;-76
2023/04/25 07:59:22;;;;;;;;;;;;;;;14.77;43.61;100267.69;4964540;28;7865;-76
2023/04/25 08:01:47;;;;;;;;;;;;;;;14.80;42.75;100272.06;4988527;28;6812;-76
2023/04/25 08:04:13;;;;;;;;;;;;;;;14.79;43.25;100271.22;4964759;28;7174;-75
2023/04/25 08:06:40;;;;;;;;;;;;;;;14.86;43.16;100280.00;4991381;28;6776;-75
2023/04/25 08:09:07;;;;;;;;;;;;;;;14.95;42.84;100285.41;4971586;28;6792;-75
2023/04/25 08:11:33;;;;;;;;;;;;;;;15.07;43.38;100290.06;4958992;28;6923;-75
2023/04/25 08:13:58;;;;;;;;;;;;;;;15.12;41.92;100288.47;4971562;28;8007;-76
2023/04/25 08:16:24;;;;;;;;;;;;;;;15.14;42.15;100297.09;4976247;28;7214;-75
2023/04/25 08:18:50;;;;;;;;;;;;;;;15.15;41.75;100298.00;4962081;28;7197;-76
2023/04/25 08:21:16;;;;;;;;;;;;;;;15.19;41.40;100304.97;4956285;28;6809;-76
2023/04/25 08:23:42;;;;;;;;;;;;;;;15.27;41.14;100300.91;4953016;28;7550;-76
2023/04/25 08:26:07;;;;;;;;;;;;;;;15.37;41.39;100308.91;4973281;28;7226;-76
2023/04/25 08:28:33;;;;;;;;;;;;;;;15.48;40.41;100304.03;4956927;28;6976;-76
2023/04/25 08:30:59;;;;;;;;;;;;;;;15.57;40.20;100309.44;4941133;28;7027;-75
2023/04/25 08:33:25;;;;;;;;;;;;;;;15.65;40.07;100307.94;4961602;28;6856;-76
2023/04/25 08:35:51;;;;;;;;;;;;;;;15.69;40.25;100314.03;4961499;28;6784;-75
2023/04/25 08:38:18;;;;;;;;;;;;;;;15.66;40.34;100312.25;4968512;28;7238;-75
2023/04/25 08:40:44;;;;;;;;;;;;;;;15.64;39.93;100313.91;4955450;28;7013;-76
2023/04/25 08:43:14;;;;;;;;;;;;;;;15.65;40.39;100323.44;4994569;28;6984;-76
2023/04/25 08:45:42;;;;;;;;;;;;;;;15.75;40.14;100324.53;4973530;28;6812;-76
2023/04/25 08:48:12;;;;;;;;;;;;;;;15.95;40.06;100326.78;4956086;28;7215;-76
2023/04/25 08:50:48;;;;;;;;;;;;;;;16.20;39.94;100317.91;4959114;28;6792;-75
2023/04/25 08:53:19;;;;;;;;;;;;;;;16.48;39.69;100330.59;4990721;28;7296;-76
2023/04/25 08:55:46;;;;;;;;;;;;;;;16.72;39.15;100331.97;4990242;28;6868;-76
2023/04/25 08:58:13;;;;;;;;;;;;;;;16.79;38.28;100324.38;4961478;28;7403;-76
2023/04/25 09:00:39;;;;;;;;;;;;;;;16.74;38.18;100336.34;4956244;28;6981;-75
2023/04/25 09:03:08;;;;;;;;;;;;;;;16.46;38.11;100343.50;4943397;28;6975;-80
2023/04/25 09:05:35;;;;;;;;;;;;;;;16.21;37.75;100353.25;4956034;28;6784;-81
2023/04/25 09:08:01;;;;;;;;;;;;;;;16.02;37.29;100356.22;4990268;28;6780;-82
2023/04/25 09:10:27;;;;;;;;;;;;;;;15.87;37.33;100365.31;4961598;28;7154;-79
2023/04/25 09:13:12;;;;;;;;;;;;;;;15.72;38.17;100365.81;4960646;28;6784;-79
2023/04/25 09:15:52;;;;;;;;;;;;;;;15.67;38.70;100369.97;4992451;28;7056;-81
2023/04/25 09:18:30;;;;;;;;;;;;;;;15.75;38.21;100365.00;4991701;28;7396;-81
2023/04/25 09:21:13;;;;;;;;;;;;;;;15.87;38.64;100365.31;4976313;28;7969;-77
2023/04/25 09:23:51;;;;;;;;;;;;;;;15.92;38.29;100368.06;4959620;28;6797;-78
2023/04/25 09:26:21;;;;;;;;;;;;;;;15.83;37.83;100379.88;4963792;28;6943;-77
2023/04/25 09:28:50;;;;;;;;;;;;;;;15.71;38.10;100379.56;4978148;28;6804;-81
2023/04/25 09:31:24;;;;;;;;;;;;;;;15.66;38.41;100379.44;4966266;28;6804;-77
2023/04/25 09:33:49;;;;;;;;;;;;;;;15.67;38.46;100375.13;4995106;28;6804;-82
2023/04/25 09:36:15;;;;;;;;;;;;;;;15.74;38.39;100381.31;5012281;28;7854;-78
2023/04/25 09:38:46;;;;;;;;;;;;;;;15.81;38.38;100388.41;4997637;28;6772;-81
2023/04/25 09:41:12;;;;;;;;;;;;;;;15.96;37.88;100390.56;4966115;28;7006;-81
2023/04/25 09:43:39;;;;;;;;;;;;;;;16.14;37.59;100390.16;4978042;28;6935;-80
2023/04/25 09:46:10;;;;;;;;;;;;;;;16.32;36.82;100397.50;4977208;28;6792;-81
2023/04/25 09:48:37;;;;;;;;;;;;;;;16.45;36.74;100392.59;4977288;28;6818;-78
2023/04/25 09:51:15;;;;;;;;;;;;;;;16.69;36.70;100391.44;4979946;28;7015;-82
2023/04/25 09:53:46;;;;;;;;;;;;;;;16.97;36.88;100403.25;4974853;28;6815;-80
2023/04/25 09:56:13;;;;;;;;;;;;;;;17.20;36.29;100396.03;4979712;28;6812;-81
2023/04/25 09:58:40;;;;;;;;;;;;;;;17.30;35.82;100404.88;4978135;28;6792;-80
2023/04/25 10:01:10;;;;;;;;;;;;;;;17.30;35.70;100407.47;4955925;28;8869;-81
2023/04/25 10:03:39;;;;;;;;;;;;;;;17.24;35.27;100409.03;4957454;28;6995;-78
2023/04/25 10:06:18;;;;;;;;;;;;;;;17.23;35.67;100413.34;4994242;28;6800;-82
2023/04/25 10:08:44;;;;;;;;;;;;;;;17.27;35.77;100412.56;4971976;28;8309;-83
2023/04/25 10:11:10;;;;;;;;;;;;;;;17.44;35.72;100418.09;4994857;28;6776;-77
2023/04/25 10:13:36;;;;;;;;;;;;;;;17.65;35.67;100405.50;4961642;28;8169;-80
2023/04/25 10:16:37;;;;;;;;;;;;;;;18.05;34.97;100414.03;4958321;28;7051;-83
2023/04/25 10:19:03;;;;;;;;;;;;;;;18.40;35.12;100407.72;4955664;28;6792;-81
2023/04/25 10:21:33;;;;;;;;;;;;;;;18.59;34.85;100408.88;4995015;28;6776;-79
2023/04/25 10:24:00;;;;;;;;;;;;;;;18.77;33.91;100405.66;4967569;28;7333;-80
2023/04/25 10:26:26;;;;;;;;;;;;;;;18.94;34.33;100400.72;4957235;28;7144;-78
2023/04/25 10:29:03;;;;;;;;;;;;;;;19.06;33.34;100399.19;4957466;28;7230;-82
2023/04/25 10:31:30;;;;;;;;;;;;;;;19.17;33.17;100405.38;4998738;28;6804;-79
2023/04/25 10:33:56;;;;;;;;;;;;;;;19.42;32.91;100409.13;4974706;28;6982;-76
2023/04/25 10:36:27;;;;;;;;;;;;;;;19.43;32.11;100412.63;4979340;28;7187;-82
2023/04/25 10:38:52;;;;;;;;;;;;;;;19.09;31.95;100410.47;4983190;28;6816;-80
2023/04/25 10:41:21;;;;;;;;;;;;;;;18.69;31.45;100410.75;4974662;28;6772;-81
2023/04/25 10:43:48;;;;;;;;;;;;;;;18.20;32.19;100407.38;5014621;28;6787;-81
2023/04/25 10:46:23;;;;;;;;;;;;;;;17.72;33.00;100415.16;4981213;28;7138;-78
2023/04/25 10:49:01;;;;;;;;;;;;;;;17.41;33.41;100414.56;4977697;28;7214;-80
2023/04/25 10:51:35;;;;;;;;;;;;;;;17.19;32.89;100422.75;4965935;28;6994;-77
2023/04/25 10:54:05;;;;;;;;;;;;;;;17.01;33.23;100424.97;4980903;28;6808;-82
2023/04/25 10:56:41;;;;;;;;;;;;;;;16.82;33.10;100427.09;4970622;28;7048;-82
2023/04/25 10:59:16;;;;;;;;;;;;;;;16.68;33.47;100421.59;4981946;28;6919;-82
2023/04/25 11:02:11;;;;;;;;;;;;;;;16.63;33.95;100425.81;4985320;28;7248;-82
2023/04/25 11:04:38;;;;;;;;;;;;;;;16.71;33.92;100419.09;4987422;28;6807;-80
2023/04/25 11:07:19;;;;;;;;;;;;;;;16.92;34.53;100412.66;5018997;28;6803;-80
2023/04/25 11:09:45;;;;;;;;;;;;;;;17.33;34.32;100417.88;4980866;28;6804;-81
2023/04/25 11:12:12;;;;;;;;;;;;;;;17.99;33.65;100419.97;5019337;28;6978;-79
2023/04/25 11:14:38;;;;;;;;;;;;;;;18.56;32.17;100421.81;4981603;28;7039;-82
2023/04/25 11:17:03;;;;;;;;;;;;;;;18.58;31.90;100420.09;4981788;28;8186;-79
2023/04/25 11:19:30;;;;;;;;;;;;;;;18.37;32.04;100424.13;4987008;28;6812;-82
2023/04/25 11:21:57;;;;;;;;;;;;;;;18.27;32.11;100417.03;4981395;28;7133;-82
2023/04/25 11:24:29;;;;;;;;;;;;;;;18.43;32.50;100418.16;4988418;28;6867;-80
2023/04/25 11:26:55;;;;;;;;;;;;;;;18.87;31.61;100419.66;5018934;28;6973;-80
2023/04/25 11:29:27;;;;;;;;;;;;;;;19.28;31.30;100411.56;4985772;28;7157;-82
2023/04/25 11:31:57;;;;;;;;;;;;;;;19.55;30.95;100412.75;4980023;28;6788;-80
2023/04/25 11:34:24;;;;;;;;;;;;;;;20.01;31.30;100419.31;4967776;28;6983;-79
2023/04/25 11:36:52;;;;;;;;;;;;;;;20.88;30.67;100408.69;5000212;28;7164;-83
2023/04/25 11:39:19;;;;;;;;;;;;;;;21.89;29.87;100414.28;4966337;28;6841;-77
2023/04/25 11:41:45;;;;;;;;;;;;;;;22.96;29.80;100411.63;4990042;28;7117;-77
2023/04/25 11:44:11;;;;;;;;;;;;;;;23.78;28.26;100402.53;4992560;28;6807;-77
2023/04/25 11:46:37;;;;;;;;;;;;;;;24.12;27.78;100411.91;4992317;28;7017;-81
2023/04/25 11:49:04;;;;;;;;;;;;;;;24.31;26.93;100409.16;4958978;28;6928;-82
2023/04/25 11:51:31;;;;;;;;;;;;;;;24.08;26.60;100408.44;4993493;28;6812;-82
2023/04/25 11:53:57;;;;;;;;;;;;;;;23.86;27.16;100415.59;4961120;28;7337;-83
2023/04/25 11:56:22;;;;;;;;;;;;;;;24.03;26.79;100404.09;4962641;28;7335;-82
2023/04/25 11:59:05;;;;;;;;;;;;;;;24.37;25.75;100407.34;4972390;28;7016;-81
2023/04/25 12:01:32;;;;;;;;;;;;;;;24.53;25.99;100410.72;4994992;28;6980;-81
2023/04/25 12:04:09;;;;;;;;;;;;;;;24.53;25.61;100409.81;4997157;28;7159;-76
2023/04/25 12:06:39;;;;;;;;;;;;;;;24.38;25.27;100416.06;4958723;28;6843;-78
2023/04/25 12:09:10;;;;;;;;;;;;;;;24.24;25.67;100416.19;4958789;28;7232;-80
2023/04/25 12:11:43;;;;;;;;;;;;;;;23.78;25.34;100420.00;4963463;28;6868;-78
2023/04/25 12:14:10;;;;;;;;;;;;;;;22.93;25.64;100424.69;4963488;28;6787;-80
2023/04/25 12:16:46;;;;;;;;;;;;;;;21.91;25.74;100436.03;4957761;28;7039;-82
2023/04/25 12:19:17;;;;;;;;;;;;;;;20.89;26.33;100442.59;4961291;28;7152;-82
2023/04/25 12:21:44;;;;;;;;;;;;;;;19.98;26.89;100445.28;4975956;28;7296;-80
2023/04/25 12:24:16;;;;;;;;;;;;;;;19.73;28.29;100439.81;4992779;28;6864;-76
2023/04/25 12:26:58;;;;;;;;;;;;;;;19.95;27.97;100446.16;4963045;28;8585;-83
2023/04/25 12:29:26;;;;;;;;;;;;;;;20.16;29.06;100444.59;4974330;28;7161;-78
2023/04/25 12:31:54;;;;;;;;;;;;;;;20.59;28.65;100444.09;4973046;28;9326;-81
2023/04/25 12:34:20;;;;;;;;;;;;;;;21.05;28.56;100453.06;4961962;28;7004;-82
2023/04/25 12:36:47;;;;;;;;;;;;;;;21.62;28.26;100440.28;4987954;28;6856;-77
2023/04/25 12:39:17;;;;;;;;;;;;;;;22.17;28.02;100437.81;4957615;28;6784;-77
2023/04/25 12:41:44;;;;;;;;;;;;;;;22.07;27.74;100444.78;4991591;28;6966;-82
2023/04/25 12:44:10;;;;;;;;;;;;;;;21.50;27.85;100450.69;4963346;28;6788;-80
2023/04/25 12:46:37;;;;;;;;;;;;;;;20.76;28.00;100456.34;4962825;28;7406;-78
2023/04/25 12:49:04;;;;;;;;;;;;;;;20.01;28.76;100454.84;4991846;28;7822;-81